Time;durP1;ratioP1;P1;durP2;ratioP2;P2;SDS_P1;SDS_P2;PMS_P1;PMS_P2;Temp;Humidity;BMP_temperature;BMP_pressure;BME280_temperature;BME280_humidity;BME280_pressure;Samples;Min_cycle;Max_cycle;Signal;HPM_P1;HPM_P2
2023/02/14 00:00:35;;;;;;;49.20;24.30;;;;;;;2.82;78.86;98002.75;4970110;28;20562;-69
2023/02/14 00:03:01;;;;;;;42.57;24.13;;;;;;;3.14;78.09;98003.09;4970130;28;20188;-68
2023/02/14 00:05:26;;;;;;;42.30;23.60;;;;;;;3.25;77.62;98006.69;4970005;28;20189;-68
2023/02/14 00:07:51;;;;;;;45.63;25.07;;;;;;;3.33;77.26;98009.38;4969608;28;20220;-68
2023/02/14 00:10:17;;;;;;;49.07;24.50;;;;;;;3.51;76.57;98006.09;4969910;28;20202;-69
2023/02/14 00:12:42;;;;;;;49.67;25.43;;;;;;;3.39;76.70;98004.25;4969927;28;20185;-67
2023/02/14 00:15:24;;;;;;;40.50;22.47;;;;;;;3.47;76.45;98012.13;4969941;28;20256;-70
2023/02/14 00:17:55;;;;;;;42.03;23.47;;;;;;;3.55;75.54;98013.06;4969498;28;20639;-70
2023/02/14 00:20:22;;;;;;;42.57;23.07;;;;;;;3.71;74.66;98012.38;4969689;28;20480;-70
2023/02/14 00:22:47;;;;;;;44.27;23.93;;;;;;;3.80;74.44;98006.38;4969802;28;20895;-68
2023/02/14 00:25:13;;;;;;;45.17;23.60;;;;;;;3.70;74.67;98007.16;4969568;28;20413;-70
2023/02/14 00:27:39;;;;;;;44.43;21.50;;;;;;;3.63;74.81;98014.00;4969489;28;20181;-69
2023/02/14 00:30:06;;;;;;;33.70;21.33;;;;;;;3.74;74.29;98008.94;4964543;28;20450;-70
2023/02/14 00:32:32;;;;;;;43.20;24.57;;;;;;;3.70;74.26;98002.81;4950297;29;20229;-70
2023/02/14 00:34:58;;;;;;;39.87;23.67;;;;;;;3.77;74.48;98009.81;4950303;29;20528;-69
2023/02/14 00:37:23;;;;;;;37.60;22.80;;;;;;;3.70;74.21;98005.41;4950100;29;20294;-71
2023/02/14 00:39:49;;;;;;;39.93;22.73;;;;;;;3.46;74.94;97998.28;4950052;29;20309;-70
2023/02/14 00:42:15;;;;;;;40.30;23.03;;;;;;;3.51;74.89;98006.09;4949578;28;20229;-67
2023/02/14 00:44:40;;;;;;;35.63;19.80;;;;;;;3.65;74.56;98003.66;4949631;29;20181;-68
2023/02/14 00:47:06;;;;;;;40.57;23.03;;;;;;;3.59;74.71;98007.03;4949305;29;20414;-66
2023/02/14 00:49:31;;;;;;;41.23;22.93;;;;;;;3.68;74.20;98007.13;4949823;29;20202;-70
2023/02/14 00:51:56;;;;;;;41.10;21.77;;;;;;;3.65;74.21;98001.06;4950270;29;20655;-70
2023/02/14 00:54:22;;;;;;;38.87;21.70;;;;;;;3.45;74.85;98008.63;4950791;29;20178;-68
2023/02/14 00:56:47;;;;;;;35.70;21.37;;;;;;;3.48;75.04;98008.69;4950046;29;20763;-67
2023/02/14 00:59:13;;;;;;;40.50;21.33;;;;;;;2.95;76.21;98010.72;4950300;29;20301;-67
2023/02/14 01:01:38;;;;;;;39.17;22.13;;;;;;;2.63;78.30;98020.66;4949808;29;20214;-69
2023/02/14 01:04:04;;;;;;;43.60;23.57;;;;;;;3.12;76.51;98010.03;4949879;29;20178;-68
2023/02/14 01:06:29;;;;;;;49.73;20.50;;;;;;;2.88;76.96;98016.66;4949575;29;20610;-67
2023/02/14 01:08:55;;;;;;;41.37;22.30;;;;;;;2.73;78.23;98011.28;4949516;28;20202;-68
2023/02/14 01:11:22;;;;;;;42.33;20.63;;;;;;;2.86;77.48;98015.78;4949538;29;20185;-68
2023/02/14 01:13:49;;;;;;;34.33;19.70;;;;;;;2.70;78.21;98016.44;4949572;29;20178;-68
2023/02/14 01:16:17;;;;;;;40.70;23.03;;;;;;;2.86;77.14;98018.38;4949033;29;20422;-67
2023/02/14 01:18:43;;;;;;;44.53;20.43;;;;;;;2.71;78.17;98021.63;4949419;29;20437;-68
2023/02/14 01:21:20;;;;;;;41.50;20.90;;;;;;;2.44;79.10;98024.72;4949345;29;21059;-69
2023/02/14 01:23:49;;;;;;;44.30;22.60;;;;;;;2.42;79.94;98018.63;4949485;29;20406;-68
2023/02/14 01:26:15;;;;;;;41.57;20.53;;;;;;;2.36;79.51;98015.06;4949264;28;20425;-67
2023/02/14 01:28:42;;;;;;;40.63;19.90;;;;;;;2.11;79.94;98013.00;4949223;29;20448;-67
2023/02/14 01:31:15;;;;;;;36.17;20.73;;;;;;;2.61;78.44;98018.91;4962840;28;20424;-68
2023/02/14 01:33:42;;;;;;;38.37;20.30;;;;;;;2.73;78.03;98016.47;4968900;28;20800;-67
2023/02/14 01:36:16;;;;;;;36.50;20.60;;;;;;;2.89;77.34;98012.34;4968356;28;20519;-69
2023/02/14 01:38:42;;;;;;;34.97;20.87;;;;;;;2.94;77.39;98008.09;4968166;28;20542;-68
2023/02/14 01:41:07;;;;;;;36.63;21.37;;;;;;;2.95;76.72;98008.13;4968323;28;20460;-69
2023/02/14 01:43:57;;;;;;;45.23;21.33;;;;;;;2.57;78.03;98004.16;4968250;28;20182;-67
2023/02/14 01:46:24;;;;;;;33.40;19.13;;;;;;;2.87;77.05;98001.09;4968145;28;20177;-67
2023/02/14 01:48:54;;;;;;;34.93;18.10;;;;;;;2.78;77.22;98004.41;4968238;28;20492;-67
2023/02/14 01:51:20;;;;;;;35.20;19.37;;;;;;;2.83;77.24;98004.47;4968473;28;20416;-67
2023/02/14 01:53:46;;;;;;;32.70;19.83;;;;;;;3.05;76.42;98014.28;4968766;28;20414;-68
2023/02/14 01:56:17;;;;;;;37.60;21.17;;;;;;;3.13;76.27;98015.22;4972053;28;20863;-68
2023/02/14 01:58:45;;;;;;;34.07;20.20;;;;;;;2.97;76.54;98018.47;4972216;28;20464;-68
2023/02/14 02:01:16;;;;;;;29.00;18.77;;;;;;;3.23;75.49;98017.91;4972263;28;20460;-68
2023/02/14 02:03:52;;;;;;;32.87;21.00;;;;;;;3.20;75.60;98020.50;4972240;28;20443;-68
2023/02/14 02:06:32;;;;;;;39.07;19.40;;;;;;;2.95;76.26;98017.59;4972094;28;20408;-68
2023/02/14 02:09:01;;;;;;;32.23;20.30;;;;;;;2.68;77.78;98018.13;4972354;28;21356;-67
2023/02/14 02:11:28;;;;;;;30.63;18.27;;;;;;;2.63;77.26;98019.78;4972200;28;20413;-69
2023/02/14 02:13:54;;;;;;;33.07;19.40;;;;;;;2.81;76.93;98007.06;4972159;28;20431;-70
2023/02/14 02:16:30;;;;;;;26.90;17.93;;;;;;;2.82;76.32;98005.34;4972059;28;20910;-68
2023/02/14 02:19:23;;;;;;;31.87;18.27;;;;;;;2.80;76.62;98009.63;4971855;28;20503;-68
2023/02/14 02:22:10;;;;;;;44.23;18.70;;;;;;;2.58;77.45;98006.78;4971782;28;20460;-70
2023/02/14 02:24:41;;;;;;;42.20;20.20;;;;;;;2.60;77.43;97994.72;4971846;28;20416;-68
2023/02/14 02:27:27;;;;;;;34.80;19.07;;;;;;;2.06;79.58;98006.03;4970014;28;20969;-68
2023/02/14 02:30:20;;;;;;;34.43;19.03;;;;;;;2.10;78.79;98007.78;4976064;28;20870;-68
2023/02/14 02:33:03;;;;;;;31.97;18.37;;;;;;;2.44;77.90;97997.94;4952240;29;20901;-68
2023/02/14 02:35:34;;;;;;;52.27;18.03;;;;;;;2.48;77.46;97991.91;4952269;29;20410;-68
2023/02/14 02:38:06;;;;;;;31.83;17.10;;;;;;;2.67;76.87;97987.84;4951707;29;20430;-69
2023/02/14 02:40:37;;;;;;;31.23;19.27;;;;;;;2.45;78.17;97991.88;4952005;29;20453;-66
2023/02/14 02:43:29;;;;;;;31.43;19.77;;;;;;;2.48;77.71;97989.34;4952066;28;20546;-69
2023/02/14 02:55:24;;;;;;;27.07;16.50;;;;;;;2.22;77.73;98002.81;4952018;29;20440;-68
2023/02/14 02:57:52;;;;;;;29.23;17.40;;;;;;;2.03;78.48;97996.50;4951635;29;20410;-68
2023/02/14 03:00:21;;;;;;;27.10;16.30;;;;;;;2.11;79.06;98004.38;4951662;29;20497;-68
2023/02/14 03:05:35;;;;;;;30.27;16.47;;;;;;;1.79;79.54;98002.13;4951454;28;20461;-69
2023/02/14 03:08:02;;;;;;;42.63;16.80;;;;;;;1.79;80.07;98006.44;4951508;29;20469;-67
2023/02/14 03:10:32;;;;;;;28.93;16.13;;;;;;;1.95;79.24;97992.03;4951676;28;20896;-67
2023/02/14 03:13:22;;;;;;;29.57;15.67;;;;;;;1.98;79.17;97989.47;4951693;28;20508;-67
2023/02/14 03:15:52;;;;;;;30.47;17.10;;;;;;;2.15;78.67;97985.44;4951390;29;20447;-69
2023/02/14 03:18:32;;;;;;;26.17;16.90;;;;;;;2.20;78.48;97988.97;4951337;29;20438;-66
2023/02/14 03:21:24;;;;;;;26.90;16.17;;;;;;;2.54;77.63;97989.44;4951692;29;20820;-68
2023/02/14 03:24:16;;;;;;;29.17;19.87;;;;;;;2.64;76.41;97987.81;4951302;29;21430;-69
2023/02/14 03:26:55;;;;;;;31.20;17.73;;;;;;;2.39;76.99;97999.59;4951061;29;20402;-67
2023/02/14 03:29:29;;;;;;;27.87;16.80;;;;;;;2.09;78.81;98003.47;4951533;29;20429;-67
2023/02/14 03:32:18;;;;;;;35.13;18.80;;;;;;;2.37;77.40;98001.28;4951684;28;20402;-68
2023/02/14 03:35:07;;;;;;;28.80;19.30;;;;;;;2.38;77.03;98001.28;4951298;28;20421;-67
2023/02/14 03:37:44;;;;;;;29.83;16.93;;;;;;;2.22;78.23;98000.22;4950680;28;20434;-68
2023/02/14 03:40:35;;;;;;;26.90;16.53;;;;;;;2.48;76.83;97999.69;4953388;28;20417;-67
2023/02/14 03:43:07;;;;;;;26.43;16.83;;;;;;;2.49;76.12;98004.03;4953715;28;20469;-68
2023/02/14 03:45:39;;;;;;;26.47;16.10;;;;;;;2.37;76.24;98002.16;4952621;28;20418;-67
2023/02/14 03:48:09;;;;;;;27.27;16.83;;;;;;;2.32;76.79;97996.03;4952479;28;20468;-68
2023/02/14 03:50:38;;;;;;;27.77;17.33;;;;;;;2.70;75.99;97999.16;4951869;28;20825;-66
2023/02/14 03:53:05;;;;;;;28.63;16.53;;;;;;;2.68;75.61;98008.63;4950840;28;20410;-67
2023/02/14 03:55:43;;;;;;;28.30;17.60;;;;;;;2.29;76.80;98004.66;4950771;28;20440;-68
2023/02/14 03:58:21;;;;;;;32.20;17.37;;;;;;;2.33;77.13;98016.78;4950553;28;20456;-68
2023/02/14 04:00:49;;;;;;;31.87;16.00;;;;;;;2.20;77.04;98008.81;4950878;28;20943;-68
2023/02/14 04:03:17;;;;;;;26.10;17.23;;;;;;;2.01;78.21;98000.75;4950639;28;20452;-69
2023/02/14 04:05:45;;;;;;;27.20;16.43;;;;;;;1.95;78.73;97999.78;4950377;28;20493;-68
2023/02/14 04:08:19;;;;;;;29.30;17.00;;;;;;;1.88;78.45;98006.59;4950208;28;20434;-68
2023/02/14 04:10:45;;;;;;;22.90;15.10;;;;;;;1.82;79.71;98004.78;4950630;28;20410;-68
2023/02/14 04:13:10;;;;;;;27.07;16.43;;;;;;;2.09;78.33;97999.16;4950560;28;20436;-67
2023/02/14 04:15:35;;;;;;;28.57;15.67;;;;;;;1.81;79.07;98007.34;4950351;28;20442;-67
2023/02/14 04:20:45;;;;;;;28.83;16.47;;;;;;;2.21;78.16;98000.19;4950308;28;20565;-67
2023/02/14 04:23:10;;;;;;;23.43;16.40;;;;;;;2.29;77.70;97998.56;4950250;28;20481;-69
2023/02/14 04:25:38;;;;;;;28.03;16.87;;;;;;;2.11;77.51;98009.53;4950034;28;20205;-67
2023/02/14 04:28:04;;;;;;;26.03;16.47;;;;;;;2.06;78.14;98000.84;4949935;28;20248;-67
2023/02/14 04:30:30;;;;;;;28.93;16.57;;;;;;;2.08;78.10;97999.16;4958245;28;20409;-68
2023/02/14 04:32:55;;;;;;;33.67;16.80;;;;;;;1.67;78.99;98001.91;4969355;28;20635;-68
2023/02/14 04:35:20;;;;;;;26.40;16.40;;;;;;;2.01;77.88;97999.88;4969337;28;20759;-69
2023/02/14 04:37:46;;;;;;;27.20;16.90;;;;;;;2.01;77.63;97995.59;4968645;28;20178;-67
2023/02/14 04:40:15;;;;;;;28.73;17.03;;;;;;;1.83;77.68;98008.22;4969165;28;20184;-68
2023/02/14 04:42:41;;;;;;;21.30;14.27;;;;;;;1.87;77.87;97999.69;4969143;28;20268;-68
2023/02/14 04:45:06;;;;;;;21.23;14.80;;;;;;;1.98;76.94;98005.88;4969023;28;20985;-67
2023/02/14 04:47:32;;;;;;;24.63;14.43;;;;;;;1.80;77.23;98001.28;4968830;28;20182;-68
2023/02/14 04:49:57;;;;;;;28.30;14.80;;;;;;;2.05;77.10;97999.06;4969085;28;21101;-69
2023/02/14 04:52:23;;;;;;;22.80;14.90;;;;;;;2.00;76.52;97995.56;4968641;28;20169;-69
2023/02/14 04:54:48;;;;;;;21.30;14.47;;;;;;;2.22;75.28;97983.78;4968918;28;20188;-69
2023/02/14 04:57:14;;;;;;;25.20;14.53;;;;;;;2.35;75.09;97983.13;4968981;28;20220;-67
2023/02/14 04:59:39;;;;;;;31.20;16.00;;;;;;;1.99;75.99;97989.50;4968808;28;20296;-68
2023/02/14 05:02:04;;;;;;;32.43;16.83;;;;;;;1.72;77.38;97995.09;4968785;28;20201;-69
2023/02/14 05:04:30;;;;;;;26.17;14.67;;;;;;;1.18;79.14;98001.03;4968961;28;20184;-68
2023/02/14 05:06:55;;;;;;;19.23;12.00;;;;;;;1.38;78.93;97999.69;4968633;28;20178;-68
2023/02/14 05:09:21;;;;;;;21.30;14.10;;;;;;;1.42;78.37;97990.28;4968596;28;20256;-68
2023/02/14 05:11:46;;;;;;;25.33;14.20;;;;;;;1.40;78.61;97991.97;4968516;28;20256;-67
2023/02/14 05:14:12;;;;;;;34.47;17.37;;;;;;;1.86;77.24;97988.44;4968387;28;20300;-68
2023/02/14 05:16:38;;;;;;;23.47;13.63;;;;;;;1.69;77.39;97985.56;4968315;28;20173;-68
2023/02/14 05:19:03;;;;;;;18.87;14.67;;;;;;;1.85;76.76;97984.13;4968455;28;21231;-70
2023/02/14 05:21:31;;;;;;;26.90;15.30;;;;;;;1.95;76.34;97981.66;4968261;28;20215;-69
2023/02/14 05:23:58;;;;;;;22.67;13.60;;;;;;;1.77;77.89;97975.38;4968489;28;20332;-68
2023/02/14 05:26:23;;;;;;;24.83;15.03;;;;;;;2.07;76.52;97979.25;4968585;28;20923;-68
2023/02/14 05:28:49;;;;;;;27.07;15.70;;;;;;;1.99;76.16;97986.06;4966801;28;20571;-70
2023/02/14 05:31:14;;;;;;;24.47;14.47;;;;;;;2.03;76.71;97978.34;4963018;28;20177;-68
2023/02/14 05:33:39;;;;;;;23.63;15.30;;;;;;;1.82;77.49;97978.00;4966113;28;20626;-68
2023/02/14 05:36:05;;;;;;;22.57;15.70;;;;;;;1.91;77.50;97975.56;4966965;28;20239;-67
2023/02/14 05:38:32;;;;;;;23.53;14.87;;;;;;;1.92;77.55;97982.50;4968065;28;20209;-68
2023/02/14 05:40:58;;;;;;;22.20;13.93;;;;;;;2.12;76.75;97975.88;4968406;28;20605;-68
2023/02/14 05:43:25;;;;;;;23.53;14.90;;;;;;;2.19;76.53;97981.16;4968294;28;20435;-68
2023/02/14 05:45:50;;;;;;;26.10;16.27;;;;;;;1.90;76.79;97984.19;4967924;28;20763;-70
2023/02/14 05:48:17;;;;;;;20.23;14.07;;;;;;;1.68;77.08;97983.84;4967940;28;20567;-68
2023/02/14 05:50:44;;;;;;;23.30;13.67;;;;;;;1.72;77.96;97992.50;4967911;28;20268;-68
2023/02/14 05:53:10;;;;;;;22.83;14.73;;;;;;;1.51;79.37;97993.00;4968025;28;20470;-68
2023/02/14 05:55:35;;;;;;;28.20;17.63;;;;;;;1.62;78.61;97993.22;4966484;28;20453;-66
2023/02/14 05:58:01;;;;;;;27.60;14.87;;;;;;;1.33;79.72;97996.16;4967761;28;20471;-67
2023/02/14 06:00:27;;;;;;;26.27;15.30;;;;;;;1.42;79.44;97996.34;4967120;28;20177;-67
2023/02/14 06:02:52;;;;;;;21.20;15.00;;;;;;;1.96;77.31;97989.47;4949972;28;20190;-68
2023/02/14 06:05:19;;;;;;;24.67;14.90;;;;;;;1.96;77.29;97984.28;4946417;28;20939;-68
2023/02/14 06:07:49;;;;;;;30.43;16.30;;;;;;;2.10;76.05;97987.06;4948055;28;20220;-68
2023/02/14 06:10:18;;;;;;;31.03;15.37;;;;;;;2.25;76.49;97986.44;4962704;28;20436;-68
2023/02/14 06:12:44;;;;;;;26.40;15.40;;;;;;;2.36;75.58;97986.56;4961018;28;20440;-68
2023/02/14 06:15:10;;;;;;;48.30;17.40;;;;;;;2.41;74.69;97985.81;4964497;28;20441;-69
2023/02/14 06:17:36;;;;;;;25.00;15.97;;;;;;;2.06;75.80;97986.16;4959156;28;20797;-66
2023/02/14 06:20:01;;;;;;;24.60;14.23;;;;;;;2.04;76.10;97993.03;4958582;28;20456;-69
2023/02/14 06:22:27;;;;;;;24.47;15.47;;;;;;;2.15;76.25;98000.97;4958788;28;20663;-70
2023/02/14 06:24:52;;;;;;;24.13;14.53;;;;;;;1.64;77.88;98009.63;4962168;28;20190;-68
2023/02/14 06:27:18;;;;;;;26.90;16.00;;;;;;;2.10;75.89;98006.09;4954887;28;20265;-70
2023/02/14 06:29:43;;;;;;;23.70;14.27;;;;;;;2.06;75.67;98011.19;4963641;28;20256;-68
2023/02/14 06:32:08;;;;;;;22.63;14.30;;;;;;;1.98;76.52;98007.59;4963018;28;20643;-70
2023/02/14 06:34:34;;;;;;;22.83;14.80;;;;;;;2.00;76.11;98017.13;4961929;28;20189;-69
2023/02/14 06:36:59;;;;;;;34.73;15.33;;;;;;;2.00;76.14;98013.69;4958735;28;20505;-69
2023/02/14 06:39:25;;;;;;;23.03;13.93;;;;;;;2.19;74.75;98012.25;4961501;28;20214;-69
2023/02/14 06:41:51;;;;;;;21.60;14.57;;;;;;;1.74;77.11;98014.13;4964432;28;20201;-68
2023/02/14 06:44:16;;;;;;;26.00;14.27;;;;;;;1.70;76.63;98014.91;4967800;28;20186;-69
2023/02/14 06:46:42;;;;;;;30.30;15.70;;;;;;;1.88;76.07;98004.00;4967912;28;20243;-71
2023/02/14 06:49:09;;;;;;;24.23;14.87;;;;;;;1.88;76.39;98004.00;4968106;28;20300;-67
2023/02/14 06:51:34;;;;;;;26.80;15.87;;;;;;;1.92;76.04;97997.16;4964791;28;20268;-69
2023/02/14 06:54:00;;;;;;;25.07;14.07;;;;;;;1.63;77.13;98003.59;4967997;28;20469;-69
2023/02/14 06:56:25;;;;;;;24.93;16.03;;;;;;;1.56;77.70;98001.75;4968123;28;20180;-69
2023/02/14 06:58:51;;;;;;;26.20;16.07;;;;;;;1.62;78.00;98001.84;4966907;28;20817;-69
2023/02/14 07:01:16;;;;;;;25.70;14.93;;;;;;;1.85;76.70;98006.53;4968015;28;20236;-68
2023/02/14 07:03:42;;;;;;;22.67;15.50;;;;;;;2.07;76.32;97994.78;4969211;28;20792;-69
2023/02/14 07:06:07;;;;;;;21.70;13.40;;;;;;;1.96;76.01;97992.06;4968671;28;20232;-70
2023/02/14 07:08:32;;;;;;;22.30;15.93;;;;;;;1.93;76.44;98001.47;4965898;28;20205;-69
2023/02/14 07:10:58;;;;;;;29.77;15.47;;;;;;;2.05;75.62;97999.06;4968115;28;20189;-67
2023/02/14 07:13:24;;;;;;;27.50;14.97;;;;;;;1.90;76.67;98010.06;4968212;28;20173;-68
2023/02/14 07:15:49;;;;;;;26.93;14.67;;;;;;;2.02;76.24;98006.81;4966070;28;20198;-68
2023/02/14 07:18:15;;;;;;;22.07;12.80;;;;;;;2.12;75.85;98001.78;4967436;28;20197;-70
2023/02/14 07:20:40;;;;;;;21.80;14.30;;;;;;;2.00;76.37;98003.31;4967732;28;20659;-67
2023/02/14 07:23:06;;;;;;;23.07;15.67;;;;;;;1.93;76.11;97998.91;4966918;28;20268;-69
2023/02/14 07:25:31;;;;;;;28.00;14.60;;;;;;;1.73;77.37;98012.38;4967371;28;20365;-69
2023/02/14 07:27:57;;;;;;;29.57;15.60;;;;;;;1.81;77.45;98010.78;4966370;28;20200;-69
2023/02/14 07:30:23;;;;;;;25.73;15.80;;;;;;;1.95;76.40;98002.38;4959266;28;20188;-69
2023/02/14 07:32:48;;;;;;;22.47;13.33;;;;;;;1.81;76.77;98010.78;4946987;29;20185;-70
2023/02/14 07:35:13;;;;;;;23.97;14.60;;;;;;;2.10;77.01;98003.50;4955160;28;20216;-68
2023/02/14 07:37:39;;;;;;;22.80;14.70;;;;;;;2.41;75.25;97997.88;4967349;28;20706;-67
2023/02/14 07:40:06;;;;;;;22.00;13.67;;;;;;;2.43;74.68;98002.22;4969794;28;20212;-67
2023/02/14 07:42:31;;;;;;;20.27;15.23;;;;;;;2.31;74.38;97997.75;4969627;28;20233;-67
2023/02/14 07:44:56;;;;;;;33.20;15.93;;;;;;;2.36;74.47;97996.94;4964643;28;20532;-67
2023/02/14 07:47:23;;;;;;;26.33;14.20;;;;;;;2.47;74.07;97993.66;4968753;28;20221;-68
2023/02/14 07:49:49;;;;;;;39.27;16.77;;;;;;;2.60;73.75;97999.00;4969539;28;20288;-68
2023/02/14 07:52:15;;;;;;;34.03;18.00;;;;;;;2.65;73.33;97999.94;4969331;28;20827;-67
2023/02/14 07:54:41;;;;;;;23.27;15.43;;;;;;;2.64;72.88;97995.59;4968603;28;20502;-66
2023/02/14 07:57:06;;;;;;;25.73;13.73;;;;;;;2.64;72.46;97995.59;4968508;28;20192;-67
2023/02/14 07:59:32;;;;;;;21.10;14.23;;;;;;;2.46;73.24;97996.25;4969373;28;20193;-69
2023/02/14 08:01:57;;;;;;;26.03;13.80;;;;;;;2.44;73.00;97992.75;4957224;28;20210;-67
2023/02/14 08:04:26;;;;;;;20.33;15.40;;;;;;;2.43;73.38;98007.41;4950408;28;20805;-68
2023/02/14 08:06:52;;;;;;;21.43;15.30;;;;;;;2.38;73.58;98003.88;4961070;28;20265;-69
2023/02/14 08:09:24;;;;;;;59.97;17.97;;;;;;;2.40;73.77;97991.81;4967070;28;20456;-70
2023/02/14 08:14:39;;;;;;;28.30;15.87;;;;;;;2.65;72.93;97987.84;4969207;28;20416;-70
2023/02/14 08:17:06;;;;;;;20.20;12.87;;;;;;;2.55;73.49;97985.97;4967701;28;20441;-71
2023/02/14 08:19:32;;;;;;;34.13;15.67;;;;;;;2.70;73.25;97988.78;4967656;28;20307;-70
2023/02/14 08:21:57;;;;;;;26.00;15.40;;;;;;;2.69;73.13;97986.16;4964135;28;20465;-69
2023/02/14 08:24:23;;;;;;;21.60;13.43;;;;;;;2.77;71.93;97981.09;4966146;28;20224;-69
2023/02/14 08:26:48;;;;;;;32.00;15.90;;;;;;;2.77;72.78;97978.50;4968087;28;20177;-71
2023/02/14 08:29:13;;;;;;;29.77;15.00;;;;;;;2.48;72.45;97986.75;4968009;28;20205;-67
2023/02/14 08:31:39;;;;;;;18.30;13.70;;;;;;;2.36;72.86;97982.25;4968424;28;20173;-69
2023/02/14 08:34:05;;;;;;;41.10;17.27;;;;;;;2.56;73.06;97976.50;4966656;28;20204;-69
2023/02/14 08:36:30;;;;;;;26.80;14.50;;;;;;;2.42;72.90;97973.72;4962591;28;20232;-66
2023/02/14 08:38:56;;;;;;;30.97;15.07;;;;;;;2.45;73.32;97973.75;4966285;28;20472;-67
2023/02/14 08:41:22;;;;;;;31.37;15.30;;;;;;;2.43;73.50;97976.31;4968672;28;20675;-68
2023/02/14 08:43:49;;;;;;;41.77;16.10;;;;;;;2.57;72.95;97978.22;4965210;28;20217;-67
2023/02/14 08:46:15;;;;;;;23.90;13.33;;;;;;;2.64;72.62;97978.31;4963217;28;20440;-69
2023/02/14 08:48:42;;;;;;;21.13;13.20;;;;;;;2.43;73.40;97968.53;4960471;28;20498;-68
2023/02/14 08:51:09;;;;;;;26.93;15.30;;;;;;;2.25;74.21;97971.78;4968435;28;20833;-69
2023/02/14 08:53:35;;;;;;;57.63;17.67;;;;;;;2.43;73.13;97968.53;4967246;28;20463;-69
2023/02/14 08:56:02;;;;;;;26.97;14.70;;;;;;;2.79;72.54;97966.41;4966643;28;20833;-69
2023/02/14 08:58:28;;;;;;;39.80;16.67;;;;;;;2.67;72.33;97985.25;4965002;28;20444;-69
2023/02/14 09:00:54;;;;;;;21.13;14.37;;;;;;;2.16;74.17;97982.00;4967160;28;20961;-71
2023/02/14 09:03:20;;;;;;;21.53;13.90;;;;;;;2.21;74.63;97975.16;4967789;28;20261;-69
2023/02/14 09:05:45;;;;;;;22.97;14.93;;;;;;;2.18;74.91;97969.94;4968022;28;20504;-69
2023/02/14 09:08:11;;;;;;;20.60;13.27;;;;;;;2.41;74.23;97978.03;4967179;28;20291;-70
2023/02/14 09:10:36;;;;;;;25.23;15.50;;;;;;;2.74;73.21;97972.41;4966604;28;20447;-69
2023/02/14 09:13:02;;;;;;;22.00;14.13;;;;;;;2.65;73.47;97974.91;4967565;28;20177;-70
2023/02/14 09:15:28;;;;;;;23.77;14.17;;;;;;;2.77;73.05;97970.72;4967719;28;20174;-70
2023/02/14 09:17:53;;;;;;;28.80;16.20;;;;;;;2.35;73.94;97971.91;4967226;28;20232;-71
2023/02/14 09:20:19;;;;;;;24.60;17.10;;;;;;;2.71;73.65;97962.00;4965410;28;20903;-69
2023/02/14 09:22:44;;;;;;;24.60;15.47;;;;;;;2.49;73.36;97958.28;4966840;28;20817;-69
2023/02/14 09:25:10;;;;;;;32.67;17.65;;;;;;;2.83;72.90;97968.19;4964691;28;20856;-69
2023/02/14 09:27:35;;;;;;;23.37;17.00;;;;;;;2.78;73.24;97959.47;4963592;28;20244;-68
2023/02/14 09:30:01;;;;;;;22.70;14.30;;;;;;;2.87;73.00;97963.06;4967322;28;20201;-67
2023/02/14 09:32:27;;;;;;;23.30;14.80;;;;;;;2.64;73.63;97965.34;4965778;28;20177;-69
2023/02/14 09:34:53;;;;;;;22.67;16.60;;;;;;;2.69;73.70;97955.94;4966968;28;20579;-70
2023/02/14 09:40:04;;;;;;;35.43;18.10;;;;;;;3.12;72.25;97959.03;4967334;28;20240;-68
2023/02/14 09:43:01;;;;;;;21.20;14.60;;;;;;;3.15;72.52;97947.81;4966874;28;20545;-68
2023/02/14 09:45:29;;;;;;;25.80;15.60;;;;;;;3.18;72.43;97953.00;4965336;28;20444;-67
2023/02/14 09:47:57;;;;;;;35.57;18.20;;;;;;;3.13;72.42;97950.38;4965158;28;20463;-68
2023/02/14 09:50:26;;;;;;;30.40;16.30;;;;;;;3.14;71.91;97953.81;4966937;28;20825;-68
2023/02/14 09:52:56;;;;;;;24.10;15.60;;;;;;;2.54;74.54;97966.09;4966760;28;20423;-69
2023/02/14 09:55:25;;;;;;;28.13;15.97;;;;;;;2.51;75.41;97963.47;4965355;28;20425;-69
2023/02/14 09:58:07;;;;;;;25.20;15.40;;;;;;;2.75;74.65;97965.50;4965626;28;20475;-67
2023/02/14 10:00:44;;;;;;;28.57;16.70;;;;;;;2.82;73.38;97959.53;4966851;28;20483;-69
2023/02/14 10:03:22;;;;;;;25.20;15.27;;;;;;;2.98;73.06;97960.59;4967644;28;20408;-67
2023/02/14 10:06:25;;;;;;;34.30;18.40;;;;;;;2.96;73.40;97964.88;4967830;28;20878;-70
2023/02/14 10:09:12;;;;;;;25.90;15.50;;;;;;;2.75;73.85;97968.97;4966446;28;20846;-70
2023/02/14 10:11:39;;;;;;;30.50;17.50;;;;;;;2.71;73.93;97961.13;4967570;28;20468;-69
2023/02/14 10:14:26;;;;;;;26.70;16.77;;;;;;;2.78;74.23;97959.47;4967153;28;20760;-69
2023/02/14 10:16:57;;;;;;;22.80;15.70;;;;;;;2.61;74.57;97957.56;4969873;28;20552;-69
2023/02/14 10:19:37;;;;;;;26.10;16.90;;;;;;;3.00;73.65;97948.53;4969279;28;20433;-69
2023/02/14 10:22:09;;;;;;;28.50;17.47;;;;;;;3.10;72.38;97957.28;4971006;28;20471;-69
2023/02/14 10:24:37;;;;;;;28.20;17.50;;;;;;;3.21;71.53;97957.34;4960615;28;20451;-69
2023/02/14 10:27:17;;;;;;;25.87;17.80;;;;;;;3.42;70.94;97957.56;4960722;28;20427;-69
2023/02/14 10:29:43;;;;;;;26.40;16.97;;;;;;;3.43;70.64;97945.50;4971035;28;20424;-68
2023/02/14 10:32:22;;;;;;;29.67;18.67;;;;;;;3.28;70.74;97952.25;4970029;28;20415;-70
2023/02/14 10:34:49;;;;;;;33.13;17.00;;;;;;;3.29;71.00;97942.75;4963362;28;20693;-68
2023/02/14 10:37:45;;;;;;;26.73;16.73;;;;;;;3.13;71.97;97949.50;4969827;28;21063;-69
2023/02/14 10:40:42;;;;;;;28.57;16.87;;;;;;;3.23;71.95;97945.28;4965146;28;20903;-68
2023/02/14 10:43:31;;;;;;;26.17;16.40;;;;;;;3.12;71.95;97940.88;4965774;28;20436;-68
2023/02/14 10:46:02;;;;;;;27.23;16.73;;;;;;;3.15;72.18;97935.69;4965286;28;20464;-69
2023/02/14 10:48:55;;;;;;;27.63;16.83;;;;;;;3.25;71.22;97928.00;4970829;28;20471;-69
2023/02/14 10:51:32;;;;;;;30.03;16.23;;;;;;;3.37;71.34;97939.34;4970126;28;20428;-68
2023/02/14 10:54:10;;;;;;;29.13;16.67;;;;;;;3.63;70.92;97935.25;4971064;28;20894;-69
2023/02/14 10:56:58;;;;;;;29.43;16.47;;;;;;;3.58;70.97;97932.63;4970627;28;20423;-69
2023/02/14 10:59:45;;;;;;;25.70;15.90;;;;;;;3.45;71.10;97912.59;4968325;28;20530;-69
2023/02/14 11:02:16;;;;;;;40.33;18.90;;;;;;;3.41;71.45;97908.28;4970501;28;20965;-69
2023/02/14 11:04:43;;;;;;;53.37;20.43;;;;;;;3.59;71.14;97914.47;4969443;28;21480;-69
2023/02/14 11:07:16;;;;;;;45.47;18.47;;;;;;;3.74;70.43;97913.72;4968531;28;20500;-69
2023/02/14 11:09:42;;;;;;;29.30;19.33;;;;;;;3.66;70.32;97909.31;4964905;28;20453;-68
2023/02/14 11:12:07;;;;;;;37.70;19.20;;;;;;;3.60;70.25;97902.38;4970395;28;20508;-70
2023/02/14 11:14:38;;;;;;;33.77;20.57;;;;;;;3.72;70.54;97896.41;4970228;28;20205;-68
2023/02/14 11:17:30;;;;;;;34.67;20.33;;;;;;;3.88;70.02;97905.16;4969080;28;20190;-69
2023/02/14 11:20:01;;;;;;;28.50;18.23;;;;;;;3.80;70.08;97902.50;4962880;28;20475;-68
2023/02/14 11:22:31;;;;;;;49.30;20.07;;;;;;;3.89;69.61;97894.78;4969993;28;20457;-70
2023/02/14 11:25:06;;;;;;;31.50;19.43;;;;;;;3.92;69.88;97889.63;4969109;28;20452;-68
2023/02/14 11:27:32;;;;;;;29.70;18.00;;;;;;;3.79;70.26;97891.25;4969175;28;20423;-68
2023/02/14 11:29:58;;;;;;;39.97;19.30;;;;;;;3.93;69.89;97880.97;4968386;28;20468;-68
2023/02/14 11:32:27;;;;;;;31.23;17.87;;;;;;;3.92;69.99;97876.63;4969695;28;21037;-70
2023/02/14 11:35:04;;;;;;;26.57;17.63;;;;;;;4.10;69.48;97872.41;4969905;28;20661;-69
2023/02/14 11:37:33;;;;;;;31.90;18.53;;;;;;;3.99;69.53;97874.91;4966037;28;21258;-70
2023/02/14 11:40:01;;;;;;;27.77;18.03;;;;;;;3.89;69.57;97876.59;4969028;28;20468;-70
2023/02/14 11:42:44;;;;;;;26.57;17.63;;;;;;;3.88;70.21;97874.88;4968197;28;20468;-70
2023/02/14 11:45:34;;;;;;;28.33;18.33;;;;;;;3.91;69.73;97880.06;4969394;28;20420;-70
2023/02/14 11:48:18;;;;;;;30.37;18.47;;;;;;;3.98;69.89;97871.47;4971006;28;20459;-70
2023/02/14 11:50:55;;;;;;;28.87;17.27;;;;;;;4.08;69.38;97874.97;4969290;28;20416;-69
2023/02/14 11:53:25;;;;;;;34.00;19.17;;;;;;;4.02;69.92;97861.97;4969092;28;20413;-69
2023/02/14 11:55:54;;;;;;;36.00;19.43;;;;;;;4.00;70.17;97858.50;4965473;28;20435;-71